Time;durP1;ratioP1;P1;durP2;ratioP2;P2;SDS_P1;SDS_P2;PMS_P1;PMS_P2;Temp;Humidity;BMP_temperature;BMP_pressure;BME280_temperature;BME280_humidity;BME280_pressure;Samples;Min_cycle;Max_cycle;Signal;HPM_P1;HPM_P2
2022/01/10 04:01:13;;;;;;;2.70;1.60;;;5.70;80.50;;;;;;5745570;23;20960;-75
2022/01/10 04:03:41;;;;;;;2.83;1.27;;;5.70;80.60;;;;;;5016203;28;20498;-76
2022/01/10 04:06:08;;;;;;;3.30;1.70;;;5.70;80.80;;;;;;5015873;28;20519;-76
2022/01/10 04:08:36;;;;;;;2.90;1.23;;;5.70;80.70;;;;;;5016136;28;20436;-75
2022/01/10 04:11:03;;;;;;;2.83;1.37;;;5.70;80.80;;;;;;5015616;28;20518;-76
2022/01/10 04:13:30;;;;;;;2.90;1.80;;;5.70;80.80;;;;;;5016109;28;20502;-75
2022/01/10 04:15:57;;;;;;;2.47;1.20;;;5.80;80.40;;;;;;5134372;23;20570;-78
2022/01/10 04:18:25;;;;;;;3.37;1.43;;;5.80;80.30;;;;;;5016291;28;20436;-78
2022/01/10 04:20:52;;;;;;;2.90;1.50;;;5.80;80.20;;;;;;5016329;28;20463;-78
2022/01/10 04:23:19;;;;;;;3.20;1.53;;;5.80;80.20;;;;;;5016190;28;20471;-75
2022/01/10 04:25:46;;;;;;;2.80;1.40;;;5.80;80.30;;;;;;5015839;28;20986;-75
2022/01/10 04:28:13;;;;;;;2.80;1.47;;;5.80;80.30;;;;;;5016146;28;20494;-75
2022/01/10 04:30:40;;;;;;;4.43;1.60;;;5.80;80.30;;;;;;5015815;28;20448;-75
2022/01/10 04:33:07;;;;;;;3.00;1.43;;;5.80;80.50;;;;;;5014819;28;20862;-75
2022/01/10 04:35:35;;;;;;;2.70;1.40;;;5.90;80.50;;;;;;5015863;28;20461;-75
2022/01/10 04:38:02;;;;;;;2.97;1.43;;;5.90;80.30;;;;;;5015829;28;20483;-75
2022/01/10 04:40:29;;;;;;;2.80;1.20;;;5.90;80.20;;;;;;5015863;28;20479;-75
2022/01/10 04:42:56;;;;;;;3.60;1.80;;;5.90;80.10;;;;;;5015827;28;20506;-75
2022/01/10 04:45:23;;;;;;;6.67;1.60;;;5.90;80.10;;;;;;5015681;28;20469;-75
2022/01/10 04:47:49;;;;;;;3.20;1.67;;;5.90;80.10;;;;;;5015422;28;20453;-75
2022/01/10 04:53:07;;;;;;;2.97;1.40;;;5.90;80.10;;;;;;5000051;28;20458;-75
2022/01/10 04:55:34;;;;;;;2.90;1.53;;;5.90;80.20;;;;;;5015607;28;20464;-75
2022/01/10 04:58:01;;;;;;;3.93;1.80;;;6.00;80.30;;;;;;5015430;28;20492;-76
2022/01/10 05:00:27;;;;;;;2.80;1.40;;;6.00;80.30;;;;;;5015483;28;20453;-75
2022/01/10 05:02:54;;;;;;;2.87;1.50;;;5.90;80.40;;;;;;5015502;28;20499;-75
2022/01/10 05:05:21;;;;;;;4.10;1.40;;;5.90;80.40;;;;;;5015631;28;20476;-75
2022/01/10 05:07:48;;;;;;;2.80;1.30;;;5.90;80.30;;;;;;5015533;28;20448;-75
2022/01/10 05:10:17;;;;;;;2.97;1.23;;;5.90;80.30;;;;;;5015623;28;20448;-75
2022/01/10 05:12:43;;;;;;;3.20;1.30;;;5.90;80.50;;;;;;5015273;28;20463;-75
2022/01/10 05:15:10;;;;;;;2.97;1.30;;;5.90;80.40;;;;;;5014936;28;20484;-75
2022/01/10 05:17:37;;;;;;;2.77;1.37;;;5.90;80.40;;;;;;5015054;28;20900;-74
2022/01/10 05:20:04;;;;;;;2.70;1.43;;;5.90;80.50;;;;;;5015066;28;20449;-75
2022/01/10 05:22:31;;;;;;;3.40;2.07;;;5.90;80.50;;;;;;5015119;28;20460;-75
2022/01/10 05:24:58;;;;;;;3.07;1.43;;;5.90;80.50;;;;;;5014730;28;20893;-75
2022/01/10 05:27:26;;;;;;;3.33;1.63;;;5.90;80.70;;;;;;5014988;28;20445;-75
2022/01/10 05:29:53;;;;;;;3.07;1.40;;;5.90;80.70;;;;;;5015005;28;20456;-75
2022/01/10 05:32:19;;;;;;;2.87;1.30;;;5.90;80.60;;;;;;5015042;28;20452;-75
2022/01/10 05:34:46;;;;;;;3.17;1.70;;;5.90;80.60;;;;;;5014995;28;20472;-76
2022/01/10 05:37:13;;;;;;;3.50;1.93;;;5.90;80.50;;;;;;5014829;28;20685;-76
2022/01/10 05:39:39;;;;;;;3.63;1.57;;;5.90;80.60;;;;;;5014791;28;20448;-76
2022/01/10 05:42:06;;;;;;;3.60;2.27;;;5.90;80.50;;;;;;5014475;28;20467;-76
2022/01/10 05:44:34;;;;;;;3.70;1.90;;;5.80;80.80;;;;;;5014340;28;20464;-76
2022/01/10 05:47:02;;;;;;;3.20;1.60;;;5.70;80.90;;;;;;5014675;28;20448;-76
2022/01/10 05:49:33;;;;;;;2.83;1.40;;;5.70;81.00;;;;;;5014605;28;20459;-76
2022/01/10 05:52:00;;;;;;;4.23;1.60;;;5.80;80.80;;;;;;5014571;28;20441;-76
2022/01/10 05:54:27;;;;;;;3.33;1.83;;;5.80;80.60;;;;;;5014467;28;20468;-76
2022/01/10 05:56:54;;;;;;;3.10;1.80;;;5.80;80.60;;;;;;5014159;28;20998;-76
2022/01/10 05:59:20;;;;;;;3.17;1.80;;;5.80;80.50;;;;;;5014204;28;20507;-76
2022/01/10 06:01:48;;;;;;;2.73;1.50;;;5.80;80.50;;;;;;5014094;28;20859;-76
2022/01/10 06:04:15;;;;;;;3.23;1.63;;;5.80;80.30;;;;;;5014411;28;20494;-76
2022/01/10 06:06:42;;;;;;;2.50;1.27;;;5.80;80.30;;;;;;5014322;28;20452;-76
2022/01/10 06:09:08;;;;;;;2.70;1.70;;;5.80;80.40;;;;;;5014251;28;20447;-76
2022/01/10 06:11:35;;;;;;;3.07;1.53;;;5.80;80.60;;;;;;5014193;28;20861;-76
2022/01/10 06:14:02;;;;;;;3.73;1.30;;;5.80;80.80;;;;;;5014166;28;20448;-76
2022/01/10 06:16:29;;;;;;;4.03;1.70;;;5.80;80.90;;;;;;5013591;28;20476;-76
2022/01/10 06:18:57;;;;;;;4.20;1.60;;;5.80;80.90;;;;;;5014325;28;20900;-76
2022/01/10 06:21:23;;;;;;;3.17;1.83;;;5.80;80.80;;;;;;5014034;28;20518;-76
2022/01/10 06:23:50;;;;;;;3.80;2.10;;;5.90;80.60;;;;;;5013675;28;20453;-76
2022/01/10 06:26:17;;;;;;;2.87;1.47;;;5.90;80.60;;;;;;5013951;28;20468;-76
2022/01/10 06:28:44;;;;;;;3.73;1.67;;;5.90;80.80;;;;;;5013903;28;20475;-75
2022/01/10 06:31:10;;;;;;;3.87;1.90;;;5.90;80.90;;;;;;5013958;28;20506;-76
2022/01/10 06:33:37;;;;;;;4.00;2.40;;;5.90;80.80;;;;;;5013933;28;20444;-76
2022/01/10 06:36:08;;;;;;;3.77;2.10;;;6.00;80.80;;;;;;5013569;28;20826;-76
2022/01/10 06:38:35;;;;;;;3.00;1.90;;;6.00;80.80;;;;;;5013827;28;20472;-76
2022/01/10 06:41:02;;;;;;;3.43;2.10;;;6.00;80.60;;;;;;5013725;28;20808;-76
2022/01/10 06:43:28;;;;;;;4.20;2.50;;;6.00;80.80;;;;;;5013595;28;20502;-76
2022/01/10 06:45:55;;;;;;;4.13;2.70;;;6.00;80.80;;;;;;5013366;28;20868;-76
2022/01/10 06:48:22;;;;;;;4.43;2.60;;;6.00;80.90;;;;;;5013660;28;20874;-77
2022/01/10 06:50:48;;;;;;;4.53;2.40;;;6.00;80.80;;;;;;5013615;28;20865;-76
2022/01/10 06:53:17;;;;;;;3.90;2.53;;;6.00;80.90;;;;;;5013578;28;20448;-76
2022/01/10 06:55:44;;;;;;;4.60;2.20;;;6.00;81.00;;;;;;5012829;28;20518;-76
2022/01/10 06:58:13;;;;;;;5.00;2.30;;;6.00;80.90;;;;;;5013463;28;20479;-76
2022/01/10 07:00:40;;;;;;;3.37;2.10;;;6.00;81.00;;;;;;5013631;28;20532;-76
2022/01/10 07:03:07;;;;;;;3.57;2.00;;;6.00;80.90;;;;;;5013517;28;20448;-77
2022/01/10 07:05:34;;;;;;;3.90;2.87;;;6.00;80.80;;;;;;5013588;28;20521;-76
2022/01/10 07:08:00;;;;;;;4.60;3.20;;;6.00;81.10;;;;;;5013597;28;20498;-76
2022/01/10 07:10:28;;;;;;;3.60;2.53;;;5.90;81.30;;;;;;5013585;28;20449;-76
2022/01/10 07:12:55;;;;;;;4.27;2.97;;;5.90;81.40;;;;;;5013673;28;20452;-75
2022/01/10 07:15:25;;;;;;;4.23;2.97;;;6.00;81.30;;;;;;5013211;28;20480;-75
2022/01/10 07:17:51;;;;;;;4.50;2.80;;;6.00;81.50;;;;;;5013485;28;20483;-77
2022/01/10 07:20:18;;;;;;;4.10;2.70;;;6.00;81.30;;;;;;5013573;28;20445;-76
2022/01/10 07:22:45;;;;;;;4.37;2.60;;;6.00;81.40;;;;;;5013505;28;20944;-79
2022/01/10 07:25:12;;;;;;;4.73;2.60;;;6.00;81.40;;;;;;5013658;28;20472;-76
2022/01/10 07:27:40;;;;;;;4.17;2.60;;;6.00;81.20;;;;;;5013468;28;20444;-78
2022/01/10 07:30:07;;;;;;;4.07;3.00;;;6.00;81.10;;;;;;5016076;28;20952;-74
2022/01/10 07:32:34;;;;;;;4.10;3.40;;;5.90;81.20;;;;;;5013369;28;20452;-76
2022/01/10 07:35:01;;;;;;;6.87;4.17;;;5.60;81.70;;;;;;5013330;28;20882;-73
2022/01/10 07:37:27;;;;;;;4.67;3.57;;;5.60;82.50;;;;;;5013184;28;20486;-75
2022/01/10 07:39:54;;;;;;;5.20;4.20;;;5.60;82.10;;;;;;5013592;28;20494;-76
2022/01/10 07:42:21;;;;;;;4.57;3.73;;;5.70;82.40;;;;;;5013682;28;20448;-76
2022/01/10 07:44:49;;;;;;;5.27;4.70;;;5.60;82.00;;;;;;5013610;28;20475;-75
2022/01/10 07:47:18;;;;;;;4.77;4.10;;;5.60;82.50;;;;;;5013301;28;20475;-75
2022/01/10 07:49:45;;;;;;;4.47;3.77;;;5.70;82.30;;;;;;5013147;28;20444;-76
2022/01/10 07:52:11;;;;;;;4.43;3.87;;;5.70;82.30;;;;;;5013134;28;20456;-76
2022/01/10 07:54:38;;;;;;;5.30;4.13;;;5.70;82.20;;;;;;5013088;28;20526;-76
2022/01/10 07:57:05;;;;;;;4.27;3.53;;;5.70;82.30;;;;;;5013057;28;20444;-76
2022/01/10 07:59:32;;;;;;;6.37;4.07;;;5.70;82.30;;;;;;5013314;28;20452;-76
2022/01/10 08:02:00;;;;;;;4.90;3.30;;;5.50;82.40;;;;;;5013108;28;20468;-76
2022/01/10 08:04:27;;;;;;;4.50;3.83;;;5.60;82.30;;;;;;5012826;28;20971;-76
2022/01/10 08:06:53;;;;;;;4.10;3.20;;;5.50;82.60;;;;;;5013668;28;20872;-76
2022/01/10 08:09:20;;;;;;;4.20;3.47;;;5.50;82.60;;;;;;5016523;28;20448;-76
2022/01/10 08:11:47;;;;;;;4.03;3.20;;;5.50;82.40;;;;;;5016404;28;20448;-76
2022/01/10 08:14:14;;;;;;;3.80;2.97;;;5.60;82.80;;;;;;5017339;28;20543;-76
2022/01/10 08:16:40;;;;;;;4.60;3.10;;;5.70;82.50;;;;;;5017645;28;20514;-75
2022/01/10 08:19:08;;;;;;;4.37;3.40;;;5.70;82.50;;;;;;5016985;28;20480;-76
2022/01/10 08:21:35;;;;;;;4.60;3.70;;;5.70;82.20;;;;;;5017197;28;20483;-76
2022/01/10 08:24:01;;;;;;;4.20;3.40;;;5.70;82.40;;;;;;5016847;28;20452;-75
2022/01/10 08:26:28;;;;;;;4.10;3.20;;;5.70;82.30;;;;;;5016490;28;21033;-75
2022/01/10 08:28:55;;;;;;;5.50;3.47;;;5.70;82.20;;;;;;5016299;28;20876;-76
2022/01/10 08:31:21;;;;;;;4.50;3.37;;;5.70;82.10;;;;;;5016123;28;20870;-75
2022/01/10 08:33:48;;;;;;;4.87;4.30;;;5.60;82.60;;;;;;5016079;28;20448;-76
2022/01/10 08:36:16;;;;;;;4.67;4.17;;;5.50;82.60;;;;;;5016075;28;20468;-75
2022/01/10 08:38:43;;;;;;;5.53;3.73;;;5.60;82.60;;;;;;5015920;28;20544;-75
2022/01/10 08:41:10;;;;;;;5.20;4.53;;;5.70;82.50;;;;;;5016310;28;20510;-75
2022/01/10 08:43:36;;;;;;;4.70;3.67;;;5.70;82.50;;;;;;5016110;28;20452;-75
2022/01/10 08:46:03;;;;;;;4.40;3.80;;;5.70;82.50;;;;;;5015757;28;20464;-75
2022/01/10 08:48:30;;;;;;;5.40;3.70;;;5.80;82.30;;;;;;5015957;28;20866;-76
2022/01/10 08:50:57;;;;;;;4.27;3.50;;;5.80;82.30;;;;;;5016234;28;20506;-75
2022/01/10 08:53:25;;;;;;;3.83;2.93;;;5.80;81.90;;;;;;5015571;28;20444;-75
2022/01/10 08:55:51;;;;;;;4.00;3.30;;;5.60;82.30;;;;;;5015686;28;20469;-76
2022/01/10 08:58:19;;;;;;;4.53;3.50;;;5.70;82.20;;;;;;5015458;28;20530;-75
2022/01/10 09:00:45;;;;;;;4.87;3.47;;;5.60;82.30;;;;;;5015435;28;20480;-75
2022/01/10 09:03:12;;;;;;;3.70;3.00;;;5.50;82.00;;;;;;5015073;28;20862;-73
2022/01/10 09:05:39;;;;;;;4.10;3.33;;;5.50;82.50;;;;;;5016029;28;20527;-76
2022/01/10 09:08:06;;;;;;;3.43;2.70;;;5.60;82.50;;;;;;5015324;28;20448;-75
2022/01/10 09:10:35;;;;;;;6.80;3.63;;;5.80;82.30;;;;;;5015287;28;20449;-76
2022/01/10 09:13:02;;;;;;;3.73;2.97;;;5.80;82.30;;;;;;5015143;28;20817;-77
2022/01/10 09:15:28;;;;;;;3.70;3.30;;;6.00;81.90;;;;;;5014864;28;20526;-76
2022/01/10 09:17:55;;;;;;;4.47;3.90;;;6.00;81.60;;;;;;5015633;28;20514;-76
2022/01/10 09:20:22;;;;;;;4.13;3.60;;;6.10;81.30;;;;;;5014742;28;20460;-76
2022/01/10 09:22:49;;;;;;;3.83;3.23;;;6.10;81.10;;;;;;5015351;28;20444;-76
2022/01/10 09:25:16;;;;;;;4.93;3.70;;;6.20;80.80;;;;;;5014632;28;20980;-75
2022/01/10 09:27:44;;;;;;;4.50;3.50;;;6.10;80.70;;;;;;5014710;28;20942;-76
2022/01/10 09:30:12;;;;;;;4.33;3.50;;;6.10;81.00;;;;;;5015013;28;20448;-76
2022/01/10 09:32:39;;;;;;;3.87;2.83;;;6.10;81.20;;;;;;5015159;28;20448;-75
2022/01/10 09:35:06;;;;;;;4.20;3.43;;;6.10;80.60;;;;;;5014500;28;20832;-76
2022/01/10 09:37:33;;;;;;;4.30;3.20;;;6.10;81.10;;;;;;5014876;28;20510;-75
2022/01/10 09:40:00;;;;;;;4.73;3.43;;;6.10;81.00;;;;;;5014933;28;20495;-76
2022/01/10 09:42:27;;;;;;;4.07;2.93;;;6.10;80.70;;;;;;5014810;28;20511;-76
2022/01/10 09:44:55;;;;;;;4.53;3.13;;;6.20;80.80;;;;;;5014639;28;20518;-75
2022/01/10 09:47:22;;;;;;;5.20;3.23;;;6.20;80.80;;;;;;5014309;28;20842;-75
2022/01/10 09:49:48;;;;;;;4.20;3.67;;;6.00;81.20;;;;;;5014673;28;20514;-77
2022/01/10 09:52:16;;;;;;;4.30;3.40;;;6.00;81.50;;;;;;5014510;28;20448;-77
2022/01/10 09:54:42;;;;;;;5.93;3.00;;;5.90;81.50;;;;;;5014217;28;20476;-76
2022/01/10 09:57:09;;;;;;;4.40;2.80;;;5.90;81.20;;;;;;5014328;28;20518;-76
2022/01/10 09:59:36;;;;;;;4.77;3.30;;;5.70;81.40;;;;;;5014477;28;20487;-76
2022/01/10 10:02:06;;;;;;;4.40;3.23;;;5.60;82.20;;;;;;5014425;28;20447;-76
2022/01/10 10:04:36;;;;;;;4.17;3.23;;;5.70;82.10;;;;;;5015038;28;20910;-76
2022/01/10 10:07:02;;;;;;;4.00;2.93;;;5.90;82.00;;;;;;5014425;28;20444;-76
2022/01/10 10:09:31;;;;;;;4.00;3.20;;;5.90;81.80;;;;;;5014327;28;20437;-76
2022/01/10 10:11:58;;;;;;;5.87;3.53;;;5.80;81.30;;;;;;5014892;28;20510;-77
2022/01/10 10:14:24;;;;;;;3.90;3.00;;;5.50;82.90;;;;;;5015731;28;20453;-76
2022/01/10 10:16:54;;;;;;;4.73;3.30;;;5.60;82.70;;;;;;5015654;28;20443;-76
2022/01/10 10:19:24;;;;;;;4.20;3.53;;;5.60;82.10;;;;;;5014081;28;20570;-76
2022/01/10 10:21:52;;;;;;;3.97;2.83;;;5.50;82.80;;;;;;5014066;28;20444;-76
2022/01/10 10:24:19;;;;;;;4.43;3.83;;;5.40;83.00;;;;;;5014299;28;20444;-76
2022/01/10 10:26:46;;;;;;;6.77;4.70;;;5.60;82.80;;;;;;5014000;28;20452;-76
2022/01/10 10:29:17;;;;;;;4.70;3.37;;;5.70;82.60;;;;;;5014004;28;20441;-75
2022/01/10 10:31:46;;;;;;;4.33;3.50;;;5.70;82.80;;;;;;5013123;28;20483;-76
2022/01/10 10:34:19;;;;;;;4.03;3.30;;;5.80;82.70;;;;;;5013769;28;20455;-76
2022/01/10 10:37:00;;;;;;;6.33;4.53;;;5.90;82.90;;;;;;5014366;28;20433;-76
2022/01/10 10:39:28;;;;;;;5.73;3.60;;;6.00;82.80;;;;;;5013793;28;20550;-75
2022/01/10 10:41:55;;;;;;;4.53;3.87;;;6.00;82.70;;;;;;5013876;28;20448;-77
2022/01/10 10:44:22;;;;;;;4.50;3.67;;;6.20;82.50;;;;;;5013728;28;20449;-77
2022/01/10 10:46:51;;;;;;;5.17;3.63;;;6.30;82.20;;;;;;5013765;28;20460;-76
2022/01/10 10:49:21;;;;;;;4.90;3.30;;;6.40;81.60;;;;;;5013661;28;20498;-74
2022/01/10 10:51:51;;;;;;;4.73;3.83;;;6.40;81.40;;;;;;5013700;28;20547;-77
2022/01/10 10:54:19;;;;;;;5.03;3.33;;;6.50;81.00;;;;;;5013601;28;20441;-75
2022/01/10 10:56:47;;;;;;;4.30;3.80;;;6.50;80.60;;;;;;5014645;28;20479;-75
2022/01/10 10:59:14;;;;;;;6.40;5.13;;;6.40;80.60;;;;;;5014070;28;20531;-75
2022/01/10 11:01:42;;;;;;;5.03;4.30;;;6.60;80.50;;;;;;5013893;28;20499;-76
2022/01/10 11:04:11;;;;;;;5.20;4.23;;;6.20;80.60;;;;;;5013526;28;21021;-76
2022/01/10 11:06:39;;;;;;;5.60;4.20;;;6.30;81.00;;;;;;5013939;28;20453;-77
2022/01/10 11:09:12;;;;;;;5.87;4.10;;;6.20;81.50;;;;;;5014328;28;20476;-76
2022/01/10 11:11:40;;;;;;;4.50;3.87;;;6.20;81.10;;;;;;5014506;28;21021;-76
2022/01/10 11:14:09;;;;;;;4.33;3.10;;;6.40;81.00;;;;;;5013800;28;20486;-77
2022/01/10 11:16:38;;;;;;;3.70;3.00;;;6.20;81.00;;;;;;5013700;28;20521;-77
2022/01/10 11:19:12;;;;;;;4.93;3.80;;;5.80;81.10;;;;;;5013696;28;20480;-77
2022/01/10 11:21:39;;;;;;;5.43;3.97;;;5.60;81.80;;;;;;5013748;28;20487;-77
2022/01/10 11:24:08;;;;;;;5.03;4.00;;;5.80;82.30;;;;;;5013643;28;20939;-76
2022/01/10 11:26:39;;;;;;;4.17;3.23;;;6.00;81.10;;;;;;5013834;28;20498;-76
2022/01/10 11:29:07;;;;;;;4.27;3.20;;;6.00;80.80;;;;;;5013739;28;20503;-77
2022/01/10 11:31:36;;;;;;;3.93;2.80;;;6.10;81.00;;;;;;5013795;28;20448;-77
2022/01/10 11:34:04;;;;;;;4.67;3.97;;;6.30;80.50;;;;;;5013729;28;20455;-77
2022/01/10 11:36:31;;;;;;;4.17;3.77;;;6.40;80.40;;;;;;5013268;28;20831;-77
2022/01/10 11:38:59;;;;;;;3.80;3.00;;;6.40;80.10;;;;;;5013223;28;20480;-76
2022/01/10 11:41:29;;;;;;;4.63;3.70;;;6.50;79.90;;;;;;5013513;28;20444;-77
2022/01/10 11:44:03;;;;;;;4.43;3.70;;;6.70;79.50;;;;;;5016651;28;21041;-76
2022/01/10 11:46:36;;;;;;;4.90;3.37;;;6.70;79.50;;;;;;5017505;28;20588;-76
2022/01/10 11:49:05;;;;;;;4.70;2.90;;;6.80;79.20;;;;;;5017326;28;20436;-77
2022/01/10 11:51:35;;;;;;;3.80;3.10;;;6.70;78.60;;;;;;5017301;28;20479;-76
2022/01/10 11:54:09;;;;;;;4.37;3.27;;;6.60;79.10;;;;;;5017109;28;20536;-77
2022/01/10 11:56:39;;;;;;;4.27;3.23;;;6.70;78.70;;;;;;5017024;28;20632;-76
2022/01/10 11:59:20;;;;;;;4.50;3.30;;;6.70;78.90;;;;;;5016950;28;20602;-77
2022/01/10 12:01:51;;;;;;;4.70;3.67;;;6.80;78.90;;;;;;5016674;28;20494;-77
2022/01/10 12:04:18;;;;;;;3.63;3.03;;;7.00;78.40;;;;;;5016590;28;20778;-77
2022/01/10 12:06:45;;;;;;;4.23;3.30;;;7.00;77.90;;;;;;5016226;28;20959;-77
2022/01/10 12:09:12;;;;;;;4.90;3.53;;;7.10;77.20;;;;;;5016159;28;20952;-77
2022/01/10 12:11:40;;;;;;;4.80;3.60;;;7.10;76.90;;;;;;5016521;28;20444;-77
2022/01/10 12:14:09;;;;;;;3.63;3.03;;;7.20;76.60;;;;;;5016300;28;20444;-77
2022/01/10 12:16:36;;;;;;;4.27;3.20;;;7.20;76.20;;;;;;5016286;28;20550;-77
2022/01/10 12:19:04;;;;;;;3.60;2.77;;;7.20;76.10;;;;;;5015931;28;20510;-77
2022/01/10 12:21:31;;;;;;;3.87;2.83;;;7.30;76.00;;;;;;5016546;28;20476;-76
2022/01/10 12:23:58;;;;;;;4.53;2.57;;;7.30;75.70;;;;;;5016250;28;20452;-76
2022/01/10 12:26:27;;;;;;;4.00;3.40;;;7.50;76.30;;;;;;5016195;28;20530;-76
2022/01/10 12:28:57;;;;;;;3.97;3.20;;;7.70;76.10;;;;;;5015855;28;20452;-76
2022/01/10 12:31:25;;;;;;;5.40;3.13;;;7.80;74.90;;;;;;5016057;28;20440;-77
2022/01/10 12:33:53;;;;;;;4.53;3.17;;;7.70;75.20;;;;;;5016041;28;20444;-76
2022/01/10 12:36:21;;;;;;;4.37;2.97;;;7.90;75.20;;;;;;5015975;28;20518;-75
2022/01/10 12:38:50;;;;;;;3.20;2.40;;;7.90;74.30;;;;;;5015658;28;20990;-76
2022/01/10 12:41:19;;;;;;;8.00;3.67;;;7.90;73.70;;;;;;5016103;28;20499;-76
2022/01/10 12:43:47;;;;;;;3.53;2.43;;;7.90;74.50;;;;;;5015820;28;20459;-77
2022/01/10 12:46:16;;;;;;;5.27;2.77;;;8.30;73.80;;;;;;5015727;28;20555;-76
2022/01/10 12:48:46;;;;;;;4.47;3.30;;;8.50;72.60;;;;;;5015448;28;20445;-76
2022/01/10 12:51:13;;;;;;;3.67;2.90;;;8.40;72.20;;;;;;5015770;28;20550;-75
2022/01/10 12:53:39;;;;;;;3.70;2.47;;;8.40;72.20;;;;;;5014532;28;20479;-76
2022/01/10 12:56:06;;;;;;;4.10;2.50;;;8.40;72.60;;;;;;5015227;28;21009;-76
2022/01/10 12:58:35;;;;;;;3.97;3.00;;;8.40;72.70;;;;;;5015433;28;20448;-76
2022/01/10 13:01:08;;;;;;;4.40;3.43;;;8.30;73.40;;;;;;5015389;28;20448;-76
2022/01/10 13:03:37;;;;;;;3.77;3.10;;;8.30;73.20;;;;;;5015721;28;20521;-77
2022/01/10 13:06:04;;;;;;;4.17;3.30;;;8.30;73.10;;;;;;5015371;28;20459;-76
2022/01/10 13:08:36;;;;;;;4.53;3.30;;;8.10;73.80;;;;;;5015380;28;20448;-76
2022/01/10 13:11:08;;;;;;;5.57;3.87;;;8.10;74.60;;;;;;5015361;28;20490;-76
2022/01/10 13:13:35;;;;;;;4.33;3.40;;;8.00;75.10;;;;;;5014970;28;20436;-76
2022/01/10 13:16:02;;;;;;;4.90;3.67;;;7.80;74.50;;;;;;5014718;28;20480;-76
2022/01/10 13:18:29;;;;;;;4.50;2.53;;;7.80;74.90;;;;;;5015189;28;20452;-76
2022/01/10 13:20:57;;;;;;;4.13;2.57;;;7.80;74.60;;;;;;5014813;28;21060;-76
2022/01/10 13:23:25;;;;;;;4.30;3.20;;;7.80;74.90;;;;;;5015201;28;20441;-77
2022/01/10 13:25:55;;;;;;;3.87;2.40;;;7.80;75.30;;;;;;5014817;28;20905;-77
2022/01/10 13:28:22;;;;;;;3.30;2.50;;;7.80;75.30;;;;;;5014724;28;20939;-76
2022/01/10 13:30:52;;;;;;;4.00;2.67;;;7.80;74.90;;;;;;5015089;28;20500;-76
2022/01/10 13:33:20;;;;;;;4.20;2.53;;;7.70;75.50;;;;;;5015027;28;20432;-77
2022/01/10 13:35:57;;;;;;;4.17;3.40;;;7.50;76.10;;;;;;5014825;28;20471;-76
2022/01/10 13:38:26;;;;;;;5.00;3.20;;;7.50;76.30;;;;;;5014847;28;20953;-76
2022/01/10 13:40:54;;;;;;;4.50;3.30;;;7.60;76.30;;;;;;5014462;28;20901;-77
2022/01/10 13:43:23;;;;;;;4.27;2.80;;;7.20;76.00;;;;;;5014405;28;20986;-76
2022/01/10 13:45:52;;;;;;;4.90;3.90;;;7.10;77.20;;;;;;5014589;28;20483;-76
2022/01/10 13:48:21;;;;;;;4.30;3.53;;;7.20;77.00;;;;;;5015630;28;20452;-76
2022/01/10 13:50:50;;;;;;;4.37;3.47;;;7.30;77.10;;;;;;5016188;28;20445;-76
2022/01/10 13:53:22;;;;;;;4.10;3.70;;;7.40;77.10;;;;;;5015983;28;20971;-76
2022/01/10 13:56:07;;;;;;;4.43;2.90;;;7.50;77.00;;;;;;5015856;28;20866;-77
2022/01/10 13:58:35;;;;;;;4.70;3.43;;;7.50;76.70;;;;;;5016689;28;20790;-76
2022/01/10 14:01:04;;;;;;;3.80;3.20;;;7.60;76.30;;;;;;5016331;28;20499;-76
2022/01/10 14:03:33;;;;;;;4.03;3.17;;;7.60;76.30;;;;;;5016493;28;20482;-76
2022/01/10 14:06:11;;;;;;;4.83;4.20;;;7.50;76.60;;;;;;5016181;28;20468;-75
2022/01/10 14:08:41;;;;;;;5.33;3.67;;;7.50;76.80;;;;;;5016262;28;20441;-75
2022/01/10 14:11:11;;;;;;;4.07;3.00;;;7.30;77.00;;;;;;5016785;28;20451;-76
2022/01/10 14:13:38;;;;;;;3.63;3.00;;;7.10;77.20;;;;;;5016649;28;20464;-75
2022/01/10 14:16:05;;;;;;;4.63;3.70;;;7.00;77.40;;;;;;5015856;28;20480;-76
2022/01/10 14:18:32;;;;;;;3.50;2.80;;;7.00;78.40;;;;;;5016653;28;20455;-73
2022/01/10 14:20:59;;;;;;;4.93;3.17;;;7.10;78.20;;;;;;5015903;28;20482;-75
2022/01/10 14:23:26;;;;;;;4.23;3.60;;;6.90;78.10;;;;;;5015767;28;20455;-75
2022/01/10 14:25:55;;;;;;;5.40;3.57;;;7.00;78.60;;;;;;5015513;28;20502;-76
2022/01/10 14:28:22;;;;;;;6.70;3.93;;;7.10;78.50;;;;;;5015460;28;20460;-75
2022/01/10 14:30:50;;;;;;;6.50;3.83;;;7.20;78.40;;;;;;5015687;28;20444;-76
2022/01/10 14:33:17;;;;;;;4.10;3.70;;;7.20;78.10;;;;;;5015777;28;20936;-75
2022/01/10 14:35:44;;;;;;;5.40;4.17;;;7.10;78.10;;;;;;5016127;28;20476;-76
2022/01/10 14:38:11;;;;;;;5.00;4.10;;;7.10;78.00;;;;;;5013903;28;20444;-76
2022/01/10 14:40:37;;;;;;;4.40;3.47;;;7.10;78.40;;;;;;5019079;28;20476;-76
2022/01/10 14:43:05;;;;;;;4.70;4.20;;;7.10;78.40;;;;;;5035202;28;20444;-76
2022/01/10 14:45:32;;;;;;;5.30;3.77;;;7.20;78.10;;;;;;5039088;28;20487;-76
2022/01/10 14:47:59;;;;;;;5.27;3.90;;;7.20;78.00;;;;;;5025938;28;20456;-76
2022/01/10 14:50:26;;;;;;;5.33;3.83;;;7.20;78.10;;;;;;5014401;28;20498;-76
2022/01/10 14:52:54;;;;;;;5.40;3.73;;;7.30;77.90;;;;;;5013982;28;20502;-75
2022/01/10 14:55:20;;;;;;;5.03;4.20;;;7.40;77.80;;;;;;5013561;28;21041;-75
2022/01/10 14:57:47;;;;;;;4.40;3.90;;;7.40;78.00;;;;;;5014453;28;20455;-76
2022/01/10 15:00:17;;;;;;;4.53;3.70;;;7.40;78.00;;;;;;5013681;28;20476;-75
2022/01/10 15:02:43;;;;;;;4.23;3.40;;;7.40;77.60;;;;;;5013759;28;20445;-76
2022/01/10 15:05:10;;;;;;;5.27;4.17;;;7.40;77.60;;;;;;5013607;28;20468;-76
2022/01/10 15:07:37;;;;;;;4.70;3.53;;;7.40;77.50;;;;;;5014975;28;20947;-76
2022/01/10 15:10:05;;;;;;;4.70;4.20;;;7.40;77.40;;;;;;5015013;28;20842;-76
2022/01/10 15:12:31;;;;;;;4.87;3.70;;;7.40;77.10;;;;;;5013598;28;20452;-76
2022/01/10 15:15:01;;;;;;;4.53;4.10;;;7.40;77.00;;;;;;5013297;28;20530;-76
2022/01/10 15:17:29;;;;;;;6.03;5.33;;;7.40;76.90;;;;;;5015688;28;20535;-77
2022/01/10 15:19:55;;;;;;;5.37;4.60;;;7.40;76.80;;;;;;5017330;28;20480;-77
2022/01/10 15:22:22;;;;;;;5.30;3.73;;;7.40;76.80;;;;;;5017408;28;20455;-75
2022/01/10 15:24:49;;;;;;;4.07;3.40;;;7.40;76.80;;;;;;5020149;28;20526;-75
2022/01/10 15:27:16;;;;;;;6.40;4.10;;;7.40;76.80;;;;;;5017462;28;20475;-76
2022/01/10 15:29:43;;;;;;;4.90;4.40;;;7.40;76.90;;;;;;5017407;28;20498;-76
2022/01/10 15:32:11;;;;;;;5.20;4.30;;;7.40;76.90;;;;;;5017644;28;20506;-77
2022/01/10 15:34:39;;;;;;;5.80;4.50;;;7.40;77.00;;;;;;5017093;28;20468;-76
2022/01/10 15:37:07;;;;;;;5.60;4.30;;;7.40;76.90;;;;;;5017140;28;20506;-75
2022/01/10 15:39:35;;;;;;;4.80;3.63;;;7.30;77.00;;;;;;5016697;28;21006;-76
2022/01/10 15:42:03;;;;;;;5.50;4.10;;;7.30;77.00;;;;;;5018428;28;20869;-75
2022/01/10 15:44:29;;;;;;;5.50;4.27;;;7.30;77.00;;;;;;5018836;28;20475;-76
2022/01/10 15:46:58;;;;;;;5.13;3.90;;;7.30;77.10;;;;;;5018914;28;20498;-76
2022/01/10 15:49:25;;;;;;;4.80;4.17;;;7.30;77.30;;;;;;5018228;28;20932;-76
2022/01/10 15:51:53;;;;;;;4.50;3.97;;;7.20;77.00;;;;;;5016925;28;20506;-76
2022/01/10 15:54:20;;;;;;;7.07;3.90;;;7.20;77.30;;;;;;5016947;28;20452;-75
2022/01/10 15:56:47;;;;;;;4.73;4.23;;;7.10;77.50;;;;;;5016853;28;20494;-75
2022/01/10 15:59:13;;;;;;;5.40;4.43;;;7.20;77.40;;;;;;5016887;28;20448;-75
2022/01/10 16:01:40;;;;;;;5.57;5.07;;;7.20;77.30;;;;;;5016479;28;21014;-75
2022/01/10 16:04:07;;;;;;;5.50;4.83;;;7.10;77.50;;;;;;5016742;28;20455;-75
2022/01/10 16:06:33;;;;;;;5.50;5.00;;;7.10;77.40;;;;;;5016718;28;20878;-75
2022/01/10 16:09:01;;;;;;;5.17;4.67;;;7.10;77.40;;;;;;5016585;28;20816;-75
2022/01/10 16:11:28;;;;;;;6.37;5.40;;;7.00;77.50;;;;;;5016596;28;20440;-76
2022/01/10 16:13:55;;;;;;;5.57;5.00;;;7.00;77.60;;;;;;5016474;28;20448;-75
2022/01/10 16:16:23;;;;;;;4.97;4.10;;;7.00;77.50;;;;;;5017520;28;20550;-75
2022/01/10 16:18:50;;;;;;;5.10;4.60;;;6.90;77.40;;;;;;5016018;28;21045;-75
2022/01/10 16:21:17;;;;;;;6.00;4.73;;;6.80;77.40;;;;;;5016271;28;20483;-74
2022/01/10 16:23:44;;;;;;;4.90;4.00;;;6.80;77.70;;;;;;5015984;28;20821;-75
2022/01/10 16:26:14;;;;;;;5.37;4.83;;;6.70;77.90;;;;;;5016126;28;20476;-75
2022/01/10 16:28:41;;;;;;;6.07;5.13;;;6.70;77.90;;;;;;5016392;28;20440;-75
2022/01/10 16:31:09;;;;;;;6.17;4.70;;;6.70;77.90;;;;;;5016159;28;20448;-75
2022/01/10 16:33:36;;;;;;;5.30;4.77;;;6.60;78.20;;;;;;5016154;28;20503;-76
2022/01/10 16:36:03;;;;;;;5.30;4.77;;;6.60;78.00;;;;;;5016063;28;20567;-76
2022/01/10 16:38:30;;;;;;;5.20;4.20;;;6.50;78.10;;;;;;5015928;28;20502;-75
2022/01/10 16:40:57;;;;;;;5.87;4.70;;;6.50;78.20;;;;;;5015601;28;20896;-75
2022/01/10 16:43:27;;;;;;;5.70;5.20;;;6.40;78.10;;;;;;5015826;28;20459;-75
2022/01/10 16:45:54;;;;;;;4.73;3.97;;;6.40;78.10;;;;;;5015354;28;20984;-75
2022/01/10 16:48:21;;;;;;;4.40;4.00;;;6.40;78.20;;;;;;5015808;28;20448;-76
2022/01/10 16:50:48;;;;;;;4.67;4.03;;;6.30;78.40;;;;;;5015467;28;20808;-75
2022/01/10 16:53:14;;;;;;;7.43;4.57;;;6.30;78.50;;;;;;5015871;28;20456;-74
2022/01/10 16:55:41;;;;;;;6.17;5.17;;;6.30;78.70;;;;;;5015645;28;20472;-76
2022/01/10 16:58:12;;;;;;;6.90;6.20;;;6.20;78.80;;;;;;5015619;28;20452;-76
2022/01/10 17:00:41;;;;;;;6.33;5.73;;;6.20;78.80;;;;;;5015700;28;20472;-75
2022/01/10 17:03:09;;;;;;;7.40;5.47;;;6.20;78.80;;;;;;5015688;28;20452;-76